Terminal Aerodrome Forecast
Issued by NWS

Home | Current Version | Previous Version | Text Only | Print | Product List | Glossary On
Versions: 1 2 3 4 5 6 7 8 9 10 11 12 13 14 15 16 17 18 19 20 21 22 23 24 25 26 27 28 29 30 31 32 33 34 35 36 37 38 39 40 41 42 43 44 45 46 47 48 49 50
000
FTUS44 KHGX 261459 AAC
TAFIAH
TAF AMD
KIAH 261459Z 2615/2718 08004KT P6SM BKN010 BKN250
     FM261600 VRB03KT P6SM BKN020
     FM261700 VRB04KT P6SM VCSH SCT035
     FM261900 VRB04KT P6SM VCTS BKN040CB
      TEMPO 2619/2621 VRB10G20KT TSRA
     FM270000 VRB04KT P6SM FEW035 BKN100
     FM270600 VRB03KT P6SM BKN250
     FM271200 VRB04KT P6SM VCTS BKN025CB=

USA.gov is the U.S. government's official web portal to all federal, state and local government web resources and services.